sensor_id;sensor_type;location;lat;lon;timestamp;P1;durP1;ratioP1;P2;durP2;ratioP2
44143;SDS011;68165;51.920;4.492;2023-03-08T00:00:56;14.25;;;2.33;;
44143;SDS011;68165;51.920;4.492;2023-03-08T00:03:22;6.32;;;1.98;;
44143;SDS011;68165;51.920;4.492;2023-03-08T00:05:47;6.60;;;1.92;;
44143;SDS011;68165;51.920;4.492;2023-03-08T00:08:13;5.68;;;1.50;;
44143;SDS011;68165;51.920;4.492;2023-03-08T00:10:40;6.35;;;2.10;;
44143;SDS011;68165;51.920;4.492;2023-03-08T00:13:05;4.20;;;1.60;;
44143;SDS011;68165;51.920;4.492;2023-03-08T00:15:31;7.00;;;2.03;;
44143;SDS011;68165;51.920;4.492;2023-03-08T00:17:56;4.57;;;1.75;;
44143;SDS011;68165;51.920;4.492;2023-03-08T00:20:21;4.47;;;1.80;;
44143;SDS011;68165;51.920;4.492;2023-03-08T00:22:47;4.32;;;2.08;;
44143;SDS011;68165;51.920;4.492;2023-03-08T00:25:12;5.38;;;2.00;;
44143;SDS011;68165;51.920;4.492;2023-03-08T00:27:40;6.35;;;1.98;;
44143;SDS011;68165;51.920;4.492;2023-03-08T00:30:06;4.82;;;1.92;;
44143;SDS011;68165;51.920;4.492;2023-03-08T00:32:32;5.10;;;1.83;;
44143;SDS011;68165;51.920;4.492;2023-03-08T00:34:58;6.72;;;2.20;;
44143;SDS011;68165;51.920;4.492;2023-03-08T00:37:23;5.38;;;2.33;;
44143;SDS011;68165;51.920;4.492;2023-03-08T00:39:52;4.80;;;1.75;;
44143;SDS011;68165;51.920;4.492;2023-03-08T00:42:19;4.05;;;1.83;;
44143;SDS011;68165;51.920;4.492;2023-03-08T00:44:45;4.00;;;1.80;;
44143;SDS011;68165;51.920;4.492;2023-03-08T00:47:12;9.52;;;1.90;;
44143;SDS011;68165;51.920;4.492;2023-03-08T00:49:38;8.38;;;2.58;;
44143;SDS011;68165;51.920;4.492;2023-03-08T00:52:04;6.93;;;2.08;;
44143;SDS011;68165;51.920;4.492;2023-03-08T00:54:30;6.85;;;2.17;;
44143;SDS011;68165;51.920;4.492;2023-03-08T00:56:56;2.72;;;1.48;;
44143;SDS011;68165;51.920;4.492;2023-03-08T00:59:21;6.78;;;1.67;;
44143;SDS011;68165;51.920;4.492;2023-03-08T01:01:47;4.63;;;1.90;;
44143;SDS011;68165;51.920;4.492;2023-03-08T01:04:12;3.70;;;1.60;;
44143;SDS011;68165;51.920;4.492;2023-03-08T01:06:38;5.00;;;1.58;;
44143;SDS011;68165;51.920;4.492;2023-03-08T01:09:04;8.35;;;1.77;;
44143;SDS011;68165;51.920;4.492;2023-03-08T01:11:30;4.45;;;1.63;;
44143;SDS011;68165;51.920;4.492;2023-03-08T01:13:57;5.07;;;1.80;;
44143;SDS011;68165;51.920;4.492;2023-03-08T01:16:27;5.10;;;1.80;;
44143;SDS011;68165;51.920;4.492;2023-03-08T01:18:54;7.13;;;3.17;;
44143;SDS011;68165;51.920;4.492;2023-03-08T01:21:21;4.95;;;1.63;;
44143;SDS011;68165;51.920;4.492;2023-03-08T01:23:47;6.53;;;1.65;;
44143;SDS011;68165;51.920;4.492;2023-03-08T01:26:13;3.42;;;1.50;;
44143;SDS011;68165;51.920;4.492;2023-03-08T01:28:40;5.72;;;1.52;;
44143;SDS011;68165;51.920;4.492;2023-03-08T01:31:07;2.60;;;1.20;;
44143;SDS011;68165;51.920;4.492;2023-03-08T01:33:39;2.95;;;1.27;;
44143;SDS011;68165;51.920;4.492;2023-03-08T01:36:05;6.28;;;1.45;;
44143;SDS011;68165;51.920;4.492;2023-03-08T01:38:32;2.67;;;1.42;;
44143;SDS011;68165;51.920;4.492;2023-03-08T01:40:58;5.20;;;1.27;;
44143;SDS011;68165;51.920;4.492;2023-03-08T01:43:27;2.30;;;1.30;;
44143;SDS011;68165;51.920;4.492;2023-03-08T01:48:52;9.80;;;3.17;;
44143;SDS011;68165;51.920;4.492;2023-03-08T01:51:25;6.40;;;3.25;;
44143;SDS011;68165;51.920;4.492;2023-03-08T01:53:52;8.57;;;2.92;;
44143;SDS011;68165;51.920;4.492;2023-03-08T01:56:19;10.60;;;3.83;;
44143;SDS011;68165;51.920;4.492;2023-03-08T01:58:46;7.03;;;3.42;;
44143;SDS011;68165;51.920;4.492;2023-03-08T02:01:14;10.65;;;3.92;;
44143;SDS011;68165;51.920;4.492;2023-03-08T02:03:41;11.23;;;4.63;;
44143;SDS011;68165;51.920;4.492;2023-03-08T02:06:06;11.00;;;4.65;;
44143;SDS011;68165;51.920;4.492;2023-03-08T02:08:32;10.27;;;4.95;;
44143;SDS011;68165;51.920;4.492;2023-03-08T02:10:58;14.80;;;5.55;;
44143;SDS011;68165;51.920;4.492;2023-03-08T02:13:25;12.15;;;5.07;;
44143;SDS011;68165;51.920;4.492;2023-03-08T02:15:51;13.20;;;5.78;;
44143;SDS011;68165;51.920;4.492;2023-03-08T02:18:20;16.80;;;6.97;;
44143;SDS011;68165;51.920;4.492;2023-03-08T02:20:46;14.00;;;6.30;;
44143;SDS011;68165;51.920;4.492;2023-03-08T02:23:16;17.77;;;7.82;;
44143;SDS011;68165;51.920;4.492;2023-03-08T02:25:49;15.88;;;6.93;;
44143;SDS011;68165;51.920;4.492;2023-03-08T02:28:25;16.77;;;6.22;;
44143;SDS011;68165;51.920;4.492;2023-03-08T02:30:51;18.02;;;7.88;;
44143;SDS011;68165;51.920;4.492;2023-03-08T02:33:17;14.65;;;7.15;;
44143;SDS011;68165;51.920;4.492;2023-03-08T02:35:43;16.63;;;7.50;;
44143;SDS011;68165;51.920;4.492;2023-03-08T02:38:10;14.50;;;6.55;;
44143;SDS011;68165;51.920;4.492;2023-03-08T02:40:37;17.90;;;5.85;;
44143;SDS011;68165;51.920;4.492;2023-03-08T02:43:03;10.43;;;4.97;;
44143;SDS011;68165;51.920;4.492;2023-03-08T02:45:29;10.05;;;4.82;;
44143;SDS011;68165;51.920;4.492;2023-03-08T02:47:54;12.30;;;4.72;;
44143;SDS011;68165;51.920;4.492;2023-03-08T02:50:20;11.35;;;4.93;;
44143;SDS011;68165;51.920;4.492;2023-03-08T02:52:45;14.70;;;5.22;;
44143;SDS011;68165;51.920;4.492;2023-03-08T02:55:10;17.67;;;5.10;;
44143;SDS011;68165;51.920;4.492;2023-03-08T02:57:36;14.63;;;4.30;;
44143;SDS011;68165;51.920;4.492;2023-03-08T03:00:02;9.55;;;4.65;;
44143;SDS011;68165;51.920;4.492;2023-03-08T03:02:28;13.13;;;4.30;;
44143;SDS011;68165;51.920;4.492;2023-03-08T03:04:53;13.20;;;4.78;;
44143;SDS011;68165;51.920;4.492;2023-03-08T03:07:19;13.68;;;4.60;;
44143;SDS011;68165;51.920;4.492;2023-03-08T03:09:44;10.52;;;4.30;;
44143;SDS011;68165;51.920;4.492;2023-03-08T03:12:10;12.98;;;5.68;;
44143;SDS011;68165;51.920;4.492;2023-03-08T03:14:35;17.85;;;7.28;;
44143;SDS011;68165;51.920;4.492;2023-03-08T03:17:00;16.20;;;7.55;;
44143;SDS011;68165;51.920;4.492;2023-03-08T03:19:26;16.85;;;7.47;;
44143;SDS011;68165;51.920;4.492;2023-03-08T03:21:51;23.30;;;8.75;;
44143;SDS011;68165;51.920;4.492;2023-03-08T03:24:16;27.20;;;11.25;;
44143;SDS011;68165;51.920;4.492;2023-03-08T03:26:42;21.05;;;10.57;;
44143;SDS011;68165;51.920;4.492;2023-03-08T03:29:07;24.25;;;11.13;;
44143;SDS011;68165;51.920;4.492;2023-03-08T03:31:32;22.02;;;11.25;;
44143;SDS011;68165;51.920;4.492;2023-03-08T03:33:58;24.98;;;11.50;;
44143;SDS011;68165;51.920;4.492;2023-03-08T03:36:23;26.33;;;11.07;;
44143;SDS011;68165;51.920;4.492;2023-03-08T03:38:49;27.55;;;12.68;;
44143;SDS011;68165;51.920;4.492;2023-03-08T03:41:15;27.92;;;11.98;;
44143;SDS011;68165;51.920;4.492;2023-03-08T03:43:44;26.75;;;11.95;;
44143;SDS011;68165;51.920;4.492;2023-03-08T03:46:13;25.42;;;12.15;;
44143;SDS011;68165;51.920;4.492;2023-03-08T03:48:40;24.48;;;11.88;;
44143;SDS011;68165;51.920;4.492;2023-03-08T03:51:08;28.35;;;11.77;;
44143;SDS011;68165;51.920;4.492;2023-03-08T03:53:35;23.92;;;11.02;;
44143;SDS011;68165;51.920;4.492;2023-03-08T03:56:05;24.05;;;12.30;;
44143;SDS011;68165;51.920;4.492;2023-03-08T03:58:39;27.77;;;11.35;;
44143;SDS011;68165;51.920;4.492;2023-03-08T04:01:08;26.63;;;12.65;;
44143;SDS011;68165;51.920;4.492;2023-03-08T04:03:55;30.02;;;13.52;;
44143;SDS011;68165;51.920;4.492;2023-03-08T04:06:30;34.47;;;13.95;;
44143;SDS011;68165;51.920;4.492;2023-03-08T04:08:58;30.48;;;13.40;;
44143;SDS011;68165;51.920;4.492;2023-03-08T04:11:30;36.08;;;15.82;;
44143;SDS011;68165;51.920;4.492;2023-03-08T04:13:58;31.15;;;14.90;;
44143;SDS011;68165;51.920;4.492;2023-03-08T04:16:25;34.65;;;15.60;;
44143;SDS011;68165;51.920;4.492;2023-03-08T04:18:53;37.08;;;16.27;;
44143;SDS011;68165;51.920;4.492;2023-03-08T04:21:29;35.00;;;16.10;;
44143;SDS011;68165;51.920;4.492;2023-03-08T04:23:55;33.08;;;14.18;;
44143;SDS011;68165;51.920;4.492;2023-03-08T04:26:21;36.05;;;14.75;;
44143;SDS011;68165;51.920;4.492;2023-03-08T04:28:47;36.17;;;16.10;;
44143;SDS011;68165;51.920;4.492;2023-03-08T04:31:14;34.30;;;14.98;;
44143;SDS011;68165;51.920;4.492;2023-03-08T04:33:44;34.58;;;15.30;;
44143;SDS011;68165;51.920;4.492;2023-03-08T04:36:10;37.10;;;16.20;;
44143;SDS011;68165;51.920;4.492;2023-03-08T04:38:40;35.88;;;15.32;;
44143;SDS011;68165;51.920;4.492;2023-03-08T04:41:06;35.10;;;16.05;;
44143;SDS011;68165;51.920;4.492;2023-03-08T04:43:36;40.80;;;16.80;;
44143;SDS011;68165;51.920;4.492;2023-03-08T04:46:03;33.63;;;15.55;;
44143;SDS011;68165;51.920;4.492;2023-03-08T04:48:29;30.50;;;14.93;;
44143;SDS011;68165;51.920;4.492;2023-03-08T04:50:58;34.45;;;15.95;;
44143;SDS011;68165;51.920;4.492;2023-03-08T04:53:25;34.10;;;14.82;;
44143;SDS011;68165;51.920;4.492;2023-03-08T04:55:52;32.38;;;16.05;;
44143;SDS011;68165;51.920;4.492;2023-03-08T04:58:18;31.52;;;13.68;;
44143;SDS011;68165;51.920;4.492;2023-03-08T05:00:44;34.60;;;16.23;;
44143;SDS011;68165;51.920;4.492;2023-03-08T05:03:10;30.73;;;14.25;;
44143;SDS011;68165;51.920;4.492;2023-03-08T05:05:37;36.83;;;15.32;;
44143;SDS011;68165;51.920;4.492;2023-03-08T05:08:08;35.90;;;15.00;;
44143;SDS011;68165;51.920;4.492;2023-03-08T05:10:33;33.15;;;15.10;;
44143;SDS011;68165;51.920;4.492;2023-03-08T05:12:58;34.22;;;15.55;;
44143;SDS011;68165;51.920;4.492;2023-03-08T05:15:24;34.33;;;15.07;;
44143;SDS011;68165;51.920;4.492;2023-03-08T05:17:50;31.42;;;14.90;;
44143;SDS011;68165;51.920;4.492;2023-03-08T05:20:15;35.45;;;15.75;;
44143;SDS011;68165;51.920;4.492;2023-03-08T05:22:41;36.90;;;15.38;;
44143;SDS011;68165;51.920;4.492;2023-03-08T05:25:07;32.83;;;15.45;;
44143;SDS011;68165;51.920;4.492;2023-03-08T05:27:33;33.95;;;14.77;;
44143;SDS011;68165;51.920;4.492;2023-03-08T05:29:59;31.92;;;14.38;;
44143;SDS011;68165;51.920;4.492;2023-03-08T05:32:25;31.23;;;15.27;;
44143;SDS011;68165;51.920;4.492;2023-03-08T05:34:51;34.05;;;15.38;;
44143;SDS011;68165;51.920;4.492;2023-03-08T05:37:16;42.22;;;16.50;;
44143;SDS011;68165;51.920;4.492;2023-03-08T05:39:42;34.25;;;15.80;;
44143;SDS011;68165;51.920;4.492;2023-03-08T05:42:07;32.35;;;14.82;;
44143;SDS011;68165;51.920;4.492;2023-03-08T05:44:33;30.90;;;14.48;;
44143;SDS011;68165;51.920;4.492;2023-03-08T05:47:00;26.75;;;14.77;;
44143;SDS011;68165;51.920;4.492;2023-03-08T05:49:25;34.22;;;15.90;;
44143;SDS011;68165;51.920;4.492;2023-03-08T05:51:50;35.10;;;17.00;;
44143;SDS011;68165;51.920;4.492;2023-03-08T05:54:16;33.60;;;16.70;;
44143;SDS011;68165;51.920;4.492;2023-03-08T05:56:41;32.10;;;16.35;;
44143;SDS011;68165;51.920;4.492;2023-03-08T05:59:07;34.00;;;16.52;;
44143;SDS011;68165;51.920;4.492;2023-03-08T06:01:32;42.78;;;18.50;;
44143;SDS011;68165;51.920;4.492;2023-03-08T06:03:58;42.20;;;18.45;;
44143;SDS011;68165;51.920;4.492;2023-03-08T06:06:24;39.47;;;17.35;;
44143;SDS011;68165;51.920;4.492;2023-03-08T06:08:51;43.17;;;19.23;;
44143;SDS011;68165;51.920;4.492;2023-03-08T06:11:17;43.50;;;18.58;;
44143;SDS011;68165;51.920;4.492;2023-03-08T06:13:42;39.05;;;17.98;;
44143;SDS011;68165;51.920;4.492;2023-03-08T06:16:10;39.47;;;17.88;;
44143;SDS011;68165;51.920;4.492;2023-03-08T06:18:36;40.03;;;18.73;;
44143;SDS011;68165;51.920;4.492;2023-03-08T06:21:04;50.33;;;20.38;;
44143;SDS011;68165;51.920;4.492;2023-03-08T06:23:36;44.50;;;19.50;;
44143;SDS011;68165;51.920;4.492;2023-03-08T06:26:02;46.97;;;19.85;;
44143;SDS011;68165;51.920;4.492;2023-03-08T06:28:29;48.67;;;19.65;;
44143;SDS011;68165;51.920;4.492;2023-03-08T06:30:55;48.63;;;20.58;;
44143;SDS011;68165;51.920;4.492;2023-03-08T06:33:22;48.63;;;20.73;;
44143;SDS011;68165;51.920;4.492;2023-03-08T06:35:59;43.25;;;19.67;;
44143;SDS011;68165;51.920;4.492;2023-03-08T06:38:30;50.83;;;20.45;;
44143;SDS011;68165;51.920;4.492;2023-03-08T06:40:57;48.97;;;20.13;;
44143;SDS011;68165;51.920;4.492;2023-03-08T06:43:23;46.08;;;20.30;;
44143;SDS011;68165;51.920;4.492;2023-03-08T06:45:49;50.67;;;20.55;;
44143;SDS011;68165;51.920;4.492;2023-03-08T06:48:14;49.35;;;20.02;;
44143;SDS011;68165;51.920;4.492;2023-03-08T06:50:40;44.42;;;18.38;;
44143;SDS011;68165;51.920;4.492;2023-03-08T06:53:05;41.70;;;19.45;;
44143;SDS011;68165;51.920;4.492;2023-03-08T06:55:33;38.25;;;18.25;;
44143;SDS011;68165;51.920;4.492;2023-03-08T06:57:59;41.33;;;18.00;;
44143;SDS011;68165;51.920;4.492;2023-03-08T07:00:25;37.65;;;18.25;;
44143;SDS011;68165;51.920;4.492;2023-03-08T07:02:50;41.17;;;19.42;;
44143;SDS011;68165;51.920;4.492;2023-03-08T07:28:34;47.07;;;19.87;;
44143;SDS011;68165;51.920;4.492;2023-03-08T07:31:00;43.00;;;19.17;;
44143;SDS011;68165;51.920;4.492;2023-03-08T07:33:26;42.63;;;19.93;;
44143;SDS011;68165;51.920;4.492;2023-03-08T07:35:51;42.47;;;18.73;;
44143;SDS011;68165;51.920;4.492;2023-03-08T07:38:17;44.63;;;18.95;;
44143;SDS011;68165;51.920;4.492;2023-03-08T07:40:42;48.70;;;19.25;;
44143;SDS011;68165;51.920;4.492;2023-03-08T07:43:08;43.22;;;19.00;;
44143;SDS011;68165;51.920;4.492;2023-03-08T07:45:34;39.13;;;18.23;;
44143;SDS011;68165;51.920;4.492;2023-03-08T07:48:05;43.88;;;19.45;;
44143;SDS011;68165;51.920;4.492;2023-03-08T07:50:31;39.15;;;16.63;;
44143;SDS011;68165;51.920;4.492;2023-03-08T07:52:57;38.50;;;17.65;;
44143;SDS011;68165;51.920;4.492;2023-03-08T07:55:23;38.03;;;16.90;;
44143;SDS011;68165;51.920;4.492;2023-03-08T07:57:51;37.05;;;15.38;;
44143;SDS011;68165;51.920;4.492;2023-03-08T08:00:17;38.58;;;15.88;;
44143;SDS011;68165;51.920;4.492;2023-03-08T08:05:18;33.75;;;15.88;;
44143;SDS011;68165;51.920;4.492;2023-03-08T08:07:47;37.03;;;17.50;;
44143;SDS011;68165;51.920;4.492;2023-03-08T08:10:14;39.23;;;15.70;;
44143;SDS011;68165;51.920;4.492;2023-03-08T08:12:40;33.80;;;15.60;;
44143;SDS011;68165;51.920;4.492;2023-03-08T08:15:09;37.15;;;16.05;;
44143;SDS011;68165;51.920;4.492;2023-03-08T08:17:35;37.63;;;15.97;;
44143;SDS011;68165;51.920;4.492;2023-03-08T08:20:00;39.08;;;16.52;;
44143;SDS011;68165;51.920;4.492;2023-03-08T08:22:27;41.78;;;16.52;;
44143;SDS011;68165;51.920;4.492;2023-03-08T08:24:52;40.60;;;15.53;;
44143;SDS011;68165;51.920;4.492;2023-03-08T08:27:18;41.72;;;17.58;;
44143;SDS011;68165;51.920;4.492;2023-03-08T08:29:43;40.45;;;16.63;;
44143;SDS011;68165;51.920;4.492;2023-03-08T08:32:13;38.20;;;15.65;;
44143;SDS011;68165;51.920;4.492;2023-03-08T08:34:39;40.72;;;16.65;;
44143;SDS011;68165;51.920;4.492;2023-03-08T08:37:04;33.20;;;13.37;;
44143;SDS011;68165;51.920;4.492;2023-03-08T08:39:29;29.35;;;12.45;;
44143;SDS011;68165;51.920;4.492;2023-03-08T08:41:55;35.38;;;13.82;;
44143;SDS011;68165;51.920;4.492;2023-03-08T08:44:20;32.70;;;14.40;;
44143;SDS011;68165;51.920;4.492;2023-03-08T08:46:46;42.47;;;15.68;;
44143;SDS011;68165;51.920;4.492;2023-03-08T08:49:11;34.07;;;14.80;;
44143;SDS011;68165;51.920;4.492;2023-03-08T08:51:36;35.05;;;13.65;;
44143;SDS011;68165;51.920;4.492;2023-03-08T08:54:02;33.63;;;13.00;;
44143;SDS011;68165;51.920;4.492;2023-03-08T08:56:28;37.33;;;14.48;;
44143;SDS011;68165;51.920;4.492;2023-03-08T08:58:55;32.55;;;14.27;;
44143;SDS011;68165;51.920;4.492;2023-03-08T09:01:25;32.35;;;12.30;;
44143;SDS011;68165;51.920;4.492;2023-03-08T09:03:52;29.15;;;12.38;;
44143;SDS011;68165;51.920;4.492;2023-03-08T09:06:19;28.48;;;12.48;;
44143;SDS011;68165;51.920;4.492;2023-03-08T09:08:49;21.75;;;10.73;;
44143;SDS011;68165;51.920;4.492;2023-03-08T09:11:15;28.52;;;13.15;;
44143;SDS011;68165;51.920;4.492;2023-03-08T09:13:41;24.42;;;10.35;;
44143;SDS011;68165;51.920;4.492;2023-03-08T09:16:23;27.80;;;10.67;;
44143;SDS011;68165;51.920;4.492;2023-03-08T09:18:50;26.70;;;11.27;;
44143;SDS011;68165;51.920;4.492;2023-03-08T09:21:17;32.58;;;11.82;;
44143;SDS011;68165;51.920;4.492;2023-03-08T09:23:43;25.93;;;10.37;;
44143;SDS011;68165;51.920;4.492;2023-03-08T09:26:08;28.00;;;10.87;;
44143;SDS011;68165;51.920;4.492;2023-03-08T09:28:35;25.30;;;9.88;;
44143;SDS011;68165;51.920;4.492;2023-03-08T09:31:04;23.70;;;10.15;;
44143;SDS011;68165;51.920;4.492;2023-03-08T09:33:36;31.13;;;11.77;;
44143;SDS011;68165;51.920;4.492;2023-03-08T09:36:03;24.30;;;11.35;;
44143;SDS011;68165;51.920;4.492;2023-03-08T09:38:29;22.13;;;10.25;;
44143;SDS011;68165;51.920;4.492;2023-03-08T09:41:40;29.23;;;10.50;;
44143;SDS011;68165;51.920;4.492;2023-03-08T09:47:02;24.55;;;10.10;;
44143;SDS011;68165;51.920;4.492;2023-03-08T09:49:31;25.80;;;9.32;;
44143;SDS011;68165;51.920;4.492;2023-03-08T09:54:49;19.70;;;8.68;;
44143;SDS011;68165;51.920;4.492;2023-03-08T09:57:23;20.80;;;8.50;;
44143;SDS011;68165;51.920;4.492;2023-03-08T09:59:53;18.85;;;7.85;;
44143;SDS011;68165;51.920;4.492;2023-03-08T10:07:39;16.58;;;8.13;;
44143;SDS011;68165;51.920;4.492;2023-03-08T14:13:36;10.00;;;5.53;;
44143;SDS011;68165;51.920;4.492;2023-03-08T14:16:03;15.25;;;6.82;;
44143;SDS011;68165;51.920;4.492;2023-03-08T14:23:36;12.30;;;5.68;;
44143;SDS011;68165;51.920;4.492;2023-03-08T14:26:21;13.18;;;6.22;;
44143;SDS011;68165;51.920;4.492;2023-03-08T14:39:32;13.82;;;7.07;;
44143;SDS011;68165;51.920;4.492;2023-03-08T14:42:14;16.42;;;6.88;;
44143;SDS011;68165;51.920;4.492;2023-03-08T14:44:54;18.23;;;8.70;;
44143;SDS011;68165;51.920;4.492;2023-03-08T14:47:29;17.67;;;6.82;;
44143;SDS011;68165;51.920;4.492;2023-03-08T14:52:33;15.77;;;7.63;;
44143;SDS011;68165;51.920;4.492;2023-03-08T14:55:00;15.20;;;6.72;;
44143;SDS011;68165;51.920;4.492;2023-03-08T14:57:28;19.05;;;7.60;;
44143;SDS011;68165;51.920;4.492;2023-03-08T14:59:56;20.08;;;8.02;;
44143;SDS011;68165;51.920;4.492;2023-03-08T15:02:32;22.25;;;8.73;;
44143;SDS011;68165;51.920;4.492;2023-03-08T15:04:58;24.13;;;9.05;;
44143;SDS011;68165;51.920;4.492;2023-03-08T15:07:24;21.10;;;8.10;;
44143;SDS011;68165;51.920;4.492;2023-03-08T15:09:55;20.63;;;9.15;;
44143;SDS011;68165;51.920;4.492;2023-03-08T15:12:20;22.15;;;9.10;;
44143;SDS011;68165;51.920;4.492;2023-03-08T15:14:46;22.67;;;8.20;;
44143;SDS011;68165;51.920;4.492;2023-03-08T15:17:11;21.52;;;8.93;;
44143;SDS011;68165;51.920;4.492;2023-03-08T15:19:37;24.08;;;9.18;;
44143;SDS011;68165;51.920;4.492;2023-03-08T15:22:03;27.38;;;10.27;;
44143;SDS011;68165;51.920;4.492;2023-03-08T15:24:29;23.65;;;10.00;;
44143;SDS011;68165;51.920;4.492;2023-03-08T15:26:54;19.70;;;8.98;;
44143;SDS011;68165;51.920;4.492;2023-03-08T15:31:51;24.58;;;9.68;;
44143;SDS011;68165;51.920;4.492;2023-03-08T15:34:17;19.92;;;8.63;;
44143;SDS011;68165;51.920;4.492;2023-03-08T15:36:45;24.33;;;8.57;;
44143;SDS011;68165;51.920;4.492;2023-03-08T15:39:11;23.83;;;9.07;;
44143;SDS011;68165;51.920;4.492;2023-03-08T15:41:37;28.25;;;11.40;;
44143;SDS011;68165;51.920;4.492;2023-03-08T15:44:02;32.42;;;11.38;;
44143;SDS011;68165;51.920;4.492;2023-03-08T15:46:27;26.80;;;9.75;;
44143;SDS011;68165;51.920;4.492;2023-03-08T15:48:55;33.25;;;12.10;;
44143;SDS011;68165;51.920;4.492;2023-03-08T15:51:23;26.27;;;10.50;;
44143;SDS011;68165;51.920;4.492;2023-03-08T15:53:53;23.00;;;9.35;;
44143;SDS011;68165;51.920;4.492;2023-03-08T15:56:19;25.80;;;10.43;;
44143;SDS011;68165;51.920;4.492;2023-03-08T15:58:44;22.75;;;9.32;;
44143;SDS011;68165;51.920;4.492;2023-03-08T16:01:09;30.58;;;9.95;;
44143;SDS011;68165;51.920;4.492;2023-03-08T16:03:35;22.65;;;10.73;;
44143;SDS011;68165;51.920;4.492;2023-03-08T16:06:02;33.45;;;11.85;;
44143;SDS011;68165;51.920;4.492;2023-03-08T16:08:34;30.23;;;10.02;;
44143;SDS011;68165;51.920;4.492;2023-03-08T16:23:56;21.85;;;8.98;;
44143;SDS011;68165;51.920;4.492;2023-03-08T17:46:31;34.95;;;13.65;;
44143;SDS011;68165;51.920;4.492;2023-03-08T17:48:56;33.40;;;13.25;;
44143;SDS011;68165;51.920;4.492;2023-03-08T17:51:24;34.05;;;13.88;;
44143;SDS011;68165;51.920;4.492;2023-03-08T17:53:52;32.65;;;12.10;;
44143;SDS011;68165;51.920;4.492;2023-03-08T17:56:22;36.05;;;12.85;;
44143;SDS011;68165;51.920;4.492;2023-03-08T17:58:51;31.90;;;12.18;;
44143;SDS011;68165;51.920;4.492;2023-03-08T18:01:21;36.03;;;12.60;;
44143;SDS011;68165;51.920;4.492;2023-03-08T18:03:50;36.67;;;13.48;;
44143;SDS011;68165;51.920;4.492;2023-03-08T18:06:18;39.22;;;12.98;;
44143;SDS011;68165;51.920;4.492;2023-03-08T18:08:49;35.15;;;11.98;;
44143;SDS011;68165;51.920;4.492;2023-03-08T18:11:16;31.25;;;12.10;;
44143;SDS011;68165;51.920;4.492;2023-03-08T18:13:41;35.22;;;12.40;;
44143;SDS011;68165;51.920;4.492;2023-03-08T18:16:06;38.85;;;12.68;;
44143;SDS011;68165;51.920;4.492;2023-03-08T18:18:32;33.10;;;12.55;;
44143;SDS011;68165;51.920;4.492;2023-03-08T18:20:57;33.20;;;12.02;;
44143;SDS011;68165;51.920;4.492;2023-03-08T18:23:24;30.95;;;11.77;;
44143;SDS011;68165;51.920;4.492;2023-03-08T18:25:53;31.90;;;12.35;;
44143;SDS011;68165;51.920;4.492;2023-03-08T18:28:18;33.53;;;12.75;;
44143;SDS011;68165;51.920;4.492;2023-03-08T18:30:44;33.53;;;12.18;;
44143;SDS011;68165;51.920;4.492;2023-03-08T18:33:09;32.22;;;12.18;;
44143;SDS011;68165;51.920;4.492;2023-03-08T18:35:35;37.35;;;13.50;;
44143;SDS011;68165;51.920;4.492;2023-03-08T18:38:00;39.00;;;13.50;;
44143;SDS011;68165;51.920;4.492;2023-03-08T18:40:29;30.00;;;11.88;;
44143;SDS011;68165;51.920;4.492;2023-03-08T18:42:55;34.95;;;13.43;;
44143;SDS011;68165;51.920;4.492;2023-03-08T18:45:20;27.92;;;12.07;;
44143;SDS011;68165;51.920;4.492;2023-03-08T18:47:50;33.20;;;13.55;;
44143;SDS011;68165;51.920;4.492;2023-03-08T18:50:16;32.67;;;11.30;;
44143;SDS011;68165;51.920;4.492;2023-03-08T18:52:53;30.33;;;11.98;;
44143;SDS011;68165;51.920;4.492;2023-03-08T18:55:22;33.17;;;12.05;;
44143;SDS011;68165;51.920;4.492;2023-03-08T18:57:48;34.33;;;12.37;;
44143;SDS011;68165;51.920;4.492;2023-03-08T19:00:13;35.80;;;14.18;;
44143;SDS011;68165;51.920;4.492;2023-03-08T19:02:39;36.60;;;13.15;;
44143;SDS011;68165;51.920;4.492;2023-03-08T19:05:05;30.63;;;12.13;;
44143;SDS011;68165;51.920;4.492;2023-03-08T19:07:31;29.42;;;11.68;;
44143;SDS011;68165;51.920;4.492;2023-03-08T19:09:59;41.78;;;14.20;;
44143;SDS011;68165;51.920;4.492;2023-03-08T19:20:16;43.20;;;13.90;;
44143;SDS011;68165;51.920;4.492;2023-03-08T19:22:42;39.50;;;13.00;;
44143;SDS011;68165;51.920;4.492;2023-03-08T19:25:07;35.45;;;12.60;;
44143;SDS011;68165;51.920;4.492;2023-03-08T19:27:33;43.92;;;12.93;;
44143;SDS011;68165;51.920;4.492;2023-03-08T19:29:59;34.75;;;13.45;;
44143;SDS011;68165;51.920;4.492;2023-03-08T19:32:25;34.78;;;12.13;;
44143;SDS011;68165;51.920;4.492;2023-03-08T19:34:51;38.67;;;12.53;;
44143;SDS011;68165;51.920;4.492;2023-03-08T19:37:18;37.05;;;14.55;;
44143;SDS011;68165;51.920;4.492;2023-03-08T19:39:43;37.50;;;13.60;;
44143;SDS011;68165;51.920;4.492;2023-03-08T19:42:11;41.20;;;14.35;;
44143;SDS011;68165;51.920;4.492;2023-03-08T19:44:39;36.47;;;13.38;;
44143;SDS011;68165;51.920;4.492;2023-03-08T19:47:05;33.45;;;13.48;;
44143;SDS011;68165;51.920;4.492;2023-03-08T19:49:34;40.75;;;15.70;;
44143;SDS011;68165;51.920;4.492;2023-03-08T19:52:01;39.63;;;14.77;;
44143;SDS011;68165;51.920;4.492;2023-03-08T19:54:29;45.43;;;16.60;;
44143;SDS011;68165;51.920;4.492;2023-03-08T19:56:55;37.38;;;14.82;;
44143;SDS011;68165;51.920;4.492;2023-03-08T19:59:21;37.40;;;14.10;;
44143;SDS011;68165;51.920;4.492;2023-03-08T20:01:49;40.72;;;15.57;;
44143;SDS011;68165;51.920;4.492;2023-03-08T20:04:15;42.80;;;15.17;;
44143;SDS011;68165;51.920;4.492;2023-03-08T20:06:42;38.00;;;13.53;;
44143;SDS011;68165;51.920;4.492;2023-03-08T20:09:10;40.07;;;14.90;;
44143;SDS011;68165;51.920;4.492;2023-03-08T20:11:36;34.30;;;13.20;;
44143;SDS011;68165;51.920;4.492;2023-03-08T22:31:11;29.75;;;13.77;;
44143;SDS011;68165;51.920;4.492;2023-03-08T22:33:41;33.07;;;13.33;;
44143;SDS011;68165;51.920;4.492;2023-03-08T22:36:07;29.17;;;12.32;;
44143;SDS011;68165;51.920;4.492;2023-03-08T22:38:35;36.90;;;12.93;;
44143;SDS011;68165;51.920;4.492;2023-03-08T22:41:01;33.70;;;12.20;;
44143;SDS011;68165;51.920;4.492;2023-03-08T22:43:31;32.53;;;13.27;;
44143;SDS011;68165;51.920;4.492;2023-03-08T22:46:03;32.17;;;12.73;;
44143;SDS011;68165;51.920;4.492;2023-03-08T22:48:37;32.60;;;12.43;;
44143;SDS011;68165;51.920;4.492;2023-03-08T22:51:03;30.73;;;13.00;;
44143;SDS011;68165;51.920;4.492;2023-03-08T22:53:28;29.63;;;12.27;;
44143;SDS011;68165;51.920;4.492;2023-03-08T22:55:54;32.57;;;13.33;;
44143;SDS011;68165;51.920;4.492;2023-03-08T22:58:19;37.05;;;12.30;;
44143;SDS011;68165;51.920;4.492;2023-03-08T23:00:45;31.88;;;12.90;;
44143;SDS011;68165;51.920;4.492;2023-03-08T23:03:12;36.90;;;13.27;;
44143;SDS011;68165;51.920;4.492;2023-03-08T23:05:38;37.45;;;12.95;;
44143;SDS011;68165;51.920;4.492;2023-03-08T23:08:03;30.20;;;12.38;;
44143;SDS011;68165;51.920;4.492;2023-03-08T23:10:30;34.22;;;14.13;;
44143;SDS011;68165;51.920;4.492;2023-03-08T23:12:56;37.03;;;12.97;;
44143;SDS011;68165;51.920;4.492;2023-03-08T23:15:22;27.90;;;11.17;;
44143;SDS011;68165;51.920;4.492;2023-03-08T23:17:48;33.13;;;12.95;;
44143;SDS011;68165;51.920;4.492;2023-03-08T23:20:13;38.03;;;13.93;;
44143;SDS011;68165;51.920;4.492;2023-03-08T23:22:43;39.17;;;14.40;;
44143;SDS011;68165;51.920;4.492;2023-03-08T23:25:09;35.13;;;14.67;;
44143;SDS011;68165;51.920;4.492;2023-03-08T23:27:34;34.57;;;13.67;;
44143;SDS011;68165;51.920;4.492;2023-03-08T23:30:00;39.70;;;14.43;;